sensor_id;sensor_type;location;lat;lon;timestamp;P1;durP1;ratioP1;P2;durP2;ratioP2
63398;SDS011;49533;-34.520;150.798;2024-02-15T00:02:26;2.95;;;1.00;;
63398;SDS011;49533;-34.520;150.798;2024-02-15T00:04:53;2.58;;;1.20;;
63398;SDS011;49533;-34.520;150.798;2024-02-15T00:07:21;1.95;;;0.70;;
63398;SDS011;49533;-34.520;150.798;2024-02-15T00:09:49;3.25;;;1.10;;
63398;SDS011;49533;-34.520;150.798;2024-02-15T00:12:17;1.90;;;0.82;;
63398;SDS011;49533;-34.520;150.798;2024-02-15T00:14:44;3.60;;;1.75;;
63398;SDS011;49533;-34.520;150.798;2024-02-15T00:17:11;2.33;;;0.90;;
63398;SDS011;49533;-34.520;150.798;2024-02-15T00:19:38;3.28;;;1.38;;
63398;SDS011;49533;-34.520;150.798;2024-02-15T00:22:07;1.25;;;0.70;;
63398;SDS011;49533;-34.520;150.798;2024-02-15T00:24:36;2.15;;;0.82;;
63398;SDS011;49533;-34.520;150.798;2024-02-15T00:27:04;3.83;;;0.93;;
63398;SDS011;49533;-34.520;150.798;2024-02-15T00:29:31;3.03;;;1.15;;
63398;SDS011;49533;-34.520;150.798;2024-02-15T00:32:00;4.82;;;1.10;;
63398;SDS011;49533;-34.520;150.798;2024-02-15T00:34:32;2.53;;;0.75;;
63398;SDS011;49533;-34.520;150.798;2024-02-15T00:36:59;1.83;;;1.10;;
63398;SDS011;49533;-34.520;150.798;2024-02-15T00:39:26;2.42;;;1.13;;
63398;SDS011;49533;-34.520;150.798;2024-02-15T00:41:53;5.20;;;1.17;;
63398;SDS011;49533;-34.520;150.798;2024-02-15T00:44:21;2.88;;;1.20;;
63398;SDS011;49533;-34.520;150.798;2024-02-15T00:46:48;1.00;;;0.70;;
63398;SDS011;49533;-34.520;150.798;2024-02-15T00:49:15;3.85;;;1.38;;
63398;SDS011;49533;-34.520;150.798;2024-02-15T00:51:45;1.92;;;1.05;;
63398;SDS011;49533;-34.520;150.798;2024-02-15T00:54:12;2.80;;;1.30;;
63398;SDS011;49533;-34.520;150.798;2024-02-15T00:56:39;1.35;;;0.65;;
63398;SDS011;49533;-34.520;150.798;2024-02-15T00:59:07;3.40;;;1.10;;
63398;SDS011;49533;-34.520;150.798;2024-02-15T01:01:34;2.25;;;1.33;;
63398;SDS011;49533;-34.520;150.798;2024-02-15T01:04:06;1.80;;;0.80;;
63398;SDS011;49533;-34.520;150.798;2024-02-15T01:06:34;2.80;;;1.33;;
63398;SDS011;49533;-34.520;150.798;2024-02-15T01:09:01;4.95;;;1.00;;
63398;SDS011;49533;-34.520;150.798;2024-02-15T01:11:31;2.67;;;0.77;;
63398;SDS011;49533;-34.520;150.798;2024-02-15T01:13:59;3.75;;;1.23;;
63398;SDS011;49533;-34.520;150.798;2024-02-15T01:16:26;3.63;;;1.35;;
63398;SDS011;49533;-34.520;150.798;2024-02-15T01:18:54;3.75;;;0.90;;
63398;SDS011;49533;-34.520;150.798;2024-02-15T01:21:21;2.42;;;1.20;;
63398;SDS011;49533;-34.520;150.798;2024-02-15T01:23:48;2.08;;;0.90;;
63398;SDS011;49533;-34.520;150.798;2024-02-15T01:26:16;3.05;;;1.08;;
63398;SDS011;49533;-34.520;150.798;2024-02-15T01:28:43;4.22;;;1.27;;
63398;SDS011;49533;-34.520;150.798;2024-02-15T01:31:10;4.70;;;1.27;;
63398;SDS011;49533;-34.520;150.798;2024-02-15T01:33:38;2.17;;;1.00;;
63398;SDS011;49533;-34.520;150.798;2024-02-15T01:36:05;3.75;;;1.60;;
63398;SDS011;49533;-34.520;150.798;2024-02-15T01:38:33;2.95;;;1.05;;
63398;SDS011;49533;-34.520;150.798;2024-02-15T01:41:00;5.47;;;1.17;;
63398;SDS011;49533;-34.520;150.798;2024-02-15T01:43:28;2.35;;;0.98;;
63398;SDS011;49533;-34.520;150.798;2024-02-15T01:45:55;2.42;;;1.17;;
63398;SDS011;49533;-34.520;150.798;2024-02-15T01:48:24;2.20;;;1.27;;
63398;SDS011;49533;-34.520;150.798;2024-02-15T01:50:52;1.67;;;1.15;;
63398;SDS011;49533;-34.520;150.798;2024-02-15T01:53:19;1.73;;;0.90;;
63398;SDS011;49533;-34.520;150.798;2024-02-15T01:55:47;3.15;;;1.00;;
63398;SDS011;49533;-34.520;150.798;2024-02-15T01:58:14;4.55;;;1.38;;
63398;SDS011;49533;-34.520;150.798;2024-02-15T02:00:41;3.15;;;1.10;;
63398;SDS011;49533;-34.520;150.798;2024-02-15T02:03:09;4.32;;;1.02;;
63398;SDS011;49533;-34.520;150.798;2024-02-15T02:05:39;2.05;;;0.90;;
63398;SDS011;49533;-34.520;150.798;2024-02-15T02:08:08;3.70;;;0.80;;
63398;SDS011;49533;-34.520;150.798;2024-02-15T02:10:38;1.38;;;0.73;;
63398;SDS011;49533;-34.520;150.798;2024-02-15T02:13:06;2.75;;;0.90;;
63398;SDS011;49533;-34.520;150.798;2024-02-15T02:15:34;3.80;;;1.40;;
63398;SDS011;49533;-34.520;150.798;2024-02-15T02:18:03;3.65;;;1.17;;
63398;SDS011;49533;-34.520;150.798;2024-02-15T02:20:35;4.13;;;1.00;;
63398;SDS011;49533;-34.520;150.798;2024-02-15T02:25:44;3.17;;;1.23;;
63398;SDS011;49533;-34.520;150.798;2024-02-15T02:28:14;3.33;;;1.40;;
63398;SDS011;49533;-34.520;150.798;2024-02-15T02:30:45;1.73;;;1.20;;
63398;SDS011;49533;-34.520;150.798;2024-02-15T02:33:12;3.72;;;1.13;;
63398;SDS011;49533;-34.520;150.798;2024-02-15T02:35:48;3.08;;;1.05;;
63398;SDS011;49533;-34.520;150.798;2024-02-15T02:38:16;2.65;;;1.00;;
63398;SDS011;49533;-34.520;150.798;2024-02-15T02:40:43;2.58;;;1.30;;
63398;SDS011;49533;-34.520;150.798;2024-02-15T02:43:10;2.95;;;0.95;;
63398;SDS011;49533;-34.520;150.798;2024-02-15T02:45:38;4.78;;;1.15;;
63398;SDS011;49533;-34.520;150.798;2024-02-15T02:48:05;2.30;;;0.82;;
63398;SDS011;49533;-34.520;150.798;2024-02-15T02:50:32;3.03;;;1.63;;
63398;SDS011;49533;-34.520;150.798;2024-02-15T02:52:59;2.70;;;1.10;;
63398;SDS011;49533;-34.520;150.798;2024-02-15T02:55:26;5.57;;;1.25;;
63398;SDS011;49533;-34.520;150.798;2024-02-15T02:57:54;2.95;;;1.15;;
63398;SDS011;49533;-34.520;150.798;2024-02-15T03:00:21;2.10;;;1.00;;
63398;SDS011;49533;-34.520;150.798;2024-02-15T03:02:48;3.40;;;1.60;;
63398;SDS011;49533;-34.520;150.798;2024-02-15T03:05:15;3.67;;;1.30;;
63398;SDS011;49533;-34.520;150.798;2024-02-15T03:07:42;1.92;;;1.20;;
63398;SDS011;49533;-34.520;150.798;2024-02-15T03:10:09;2.35;;;1.17;;
63398;SDS011;49533;-34.520;150.798;2024-02-15T03:12:39;2.90;;;1.00;;
63398;SDS011;49533;-34.520;150.798;2024-02-15T03:15:11;2.95;;;1.30;;
63398;SDS011;49533;-34.520;150.798;2024-02-15T03:17:39;3.75;;;1.38;;
63398;SDS011;49533;-34.520;150.798;2024-02-15T03:20:08;3.35;;;1.15;;
63398;SDS011;49533;-34.520;150.798;2024-02-15T03:22:58;2.90;;;1.20;;
63398;SDS011;49533;-34.520;150.798;2024-02-15T03:25:27;3.45;;;1.10;;
63398;SDS011;49533;-34.520;150.798;2024-02-15T03:27:55;3.08;;;1.30;;
63398;SDS011;49533;-34.520;150.798;2024-02-15T03:30:27;2.05;;;1.20;;
63398;SDS011;49533;-34.520;150.798;2024-02-15T03:32:57;2.30;;;0.90;;
63398;SDS011;49533;-34.520;150.798;2024-02-15T03:35:25;5.40;;;1.50;;
63398;SDS011;49533;-34.520;150.798;2024-02-15T03:37:54;3.08;;;1.42;;
63398;SDS011;49533;-34.520;150.798;2024-02-15T03:40:22;2.85;;;1.40;;
63398;SDS011;49533;-34.520;150.798;2024-02-15T03:42:53;2.95;;;1.30;;
63398;SDS011;49533;-34.520;150.798;2024-02-15T03:45:20;1.92;;;0.90;;
63398;SDS011;49533;-34.520;150.798;2024-02-15T03:47:53;4.30;;;1.17;;
63398;SDS011;49533;-34.520;150.798;2024-02-15T03:50:23;2.67;;;1.15;;
63398;SDS011;49533;-34.520;150.798;2024-02-15T03:52:50;2.47;;;1.30;;
63398;SDS011;49533;-34.520;150.798;2024-02-15T03:55:18;3.22;;;1.42;;
63398;SDS011;49533;-34.520;150.798;2024-02-15T03:57:47;2.45;;;1.27;;
63398;SDS011;49533;-34.520;150.798;2024-02-15T04:00:15;2.35;;;1.27;;
63398;SDS011;49533;-34.520;150.798;2024-02-15T04:02:46;2.33;;;1.23;;
63398;SDS011;49533;-34.520;150.798;2024-02-15T04:05:14;2.45;;;1.30;;
63398;SDS011;49533;-34.520;150.798;2024-02-15T04:07:44;5.07;;;1.70;;
63398;SDS011;49533;-34.520;150.798;2024-02-15T04:10:11;2.10;;;1.35;;
63398;SDS011;49533;-34.520;150.798;2024-02-15T04:12:38;3.00;;;1.40;;
63398;SDS011;49533;-34.520;150.798;2024-02-15T04:15:08;3.60;;;1.40;;
63398;SDS011;49533;-34.520;150.798;2024-02-15T04:17:40;7.88;;;2.17;;
63398;SDS011;49533;-34.520;150.798;2024-02-15T04:20:10;5.82;;;1.60;;
63398;SDS011;49533;-34.520;150.798;2024-02-15T04:22:37;7.25;;;1.83;;
63398;SDS011;49533;-34.520;150.798;2024-02-15T04:25:07;5.90;;;2.10;;
63398;SDS011;49533;-34.520;150.798;2024-02-15T04:27:44;6.50;;;2.00;;
63398;SDS011;49533;-34.520;150.798;2024-02-15T04:30:15;7.45;;;2.17;;
63398;SDS011;49533;-34.520;150.798;2024-02-15T04:32:42;6.20;;;2.28;;
63398;SDS011;49533;-34.520;150.798;2024-02-15T04:35:09;9.85;;;1.92;;
63398;SDS011;49533;-34.520;150.798;2024-02-15T04:37:37;4.93;;;1.65;;
63398;SDS011;49533;-34.520;150.798;2024-02-15T04:40:04;7.30;;;2.25;;
63398;SDS011;49533;-34.520;150.798;2024-02-15T04:42:39;7.88;;;2.22;;
63398;SDS011;49533;-34.520;150.798;2024-02-15T04:45:09;4.13;;;1.40;;
63398;SDS011;49533;-34.520;150.798;2024-02-15T04:47:39;7.35;;;2.38;;
63398;SDS011;49533;-34.520;150.798;2024-02-15T04:50:06;7.35;;;2.00;;
63398;SDS011;49533;-34.520;150.798;2024-02-15T04:52:34;5.95;;;2.00;;
63398;SDS011;49533;-34.520;150.798;2024-02-15T04:55:02;12.13;;;2.42;;
63398;SDS011;49533;-34.520;150.798;2024-02-15T04:57:33;5.93;;;1.58;;
63398;SDS011;49533;-34.520;150.798;2024-02-15T05:00:02;6.95;;;2.25;;
63398;SDS011;49533;-34.520;150.798;2024-02-15T05:02:38;7.40;;;1.98;;
63398;SDS011;49533;-34.520;150.798;2024-02-15T05:05:09;6.47;;;1.45;;
63398;SDS011;49533;-34.520;150.798;2024-02-15T05:07:38;5.80;;;1.50;;
63398;SDS011;49533;-34.520;150.798;2024-02-15T05:10:05;3.67;;;1.60;;
63398;SDS011;49533;-34.520;150.798;2024-02-15T05:12:34;7.70;;;1.95;;
63398;SDS011;49533;-34.520;150.798;2024-02-15T05:15:01;7.53;;;1.73;;
63398;SDS011;49533;-34.520;150.798;2024-02-15T05:20:11;7.38;;;1.63;;
63398;SDS011;49533;-34.520;150.798;2024-02-15T05:22:39;6.00;;;1.45;;
63398;SDS011;49533;-34.520;150.798;2024-02-15T05:25:11;3.13;;;1.58;;
63398;SDS011;49533;-34.520;150.798;2024-02-15T05:27:41;3.92;;;1.50;;
63398;SDS011;49533;-34.520;150.798;2024-02-15T05:30:10;6.97;;;1.75;;
63398;SDS011;49533;-34.520;150.798;2024-02-15T05:32:38;5.93;;;1.80;;
63398;SDS011;49533;-34.520;150.798;2024-02-15T05:35:09;2.60;;;1.75;;
63398;SDS011;49533;-34.520;150.798;2024-02-15T05:37:37;3.13;;;1.50;;
63398;SDS011;49533;-34.520;150.798;2024-02-15T05:40:05;5.75;;;1.80;;
63398;SDS011;49533;-34.520;150.798;2024-02-15T05:42:33;5.28;;;1.75;;
63398;SDS011;49533;-34.520;150.798;2024-02-15T05:45:14;3.42;;;1.48;;
63398;SDS011;49533;-34.520;150.798;2024-02-15T05:47:51;4.07;;;1.60;;
63398;SDS011;49533;-34.520;150.798;2024-02-15T05:50:20;3.35;;;1.55;;
63398;SDS011;49533;-34.520;150.798;2024-02-15T05:52:48;3.35;;;1.63;;
63398;SDS011;49533;-34.520;150.798;2024-02-15T05:55:18;3.42;;;1.45;;
63398;SDS011;49533;-34.520;150.798;2024-02-15T05:57:45;4.00;;;1.58;;
63398;SDS011;49533;-34.520;150.798;2024-02-15T06:00:13;5.40;;;1.40;;
63398;SDS011;49533;-34.520;150.798;2024-02-15T06:02:40;2.25;;;1.23;;
63398;SDS011;49533;-34.520;150.798;2024-02-15T06:05:08;1.65;;;1.23;;
63398;SDS011;49533;-34.520;150.798;2024-02-15T06:07:36;3.58;;;1.63;;
63398;SDS011;49533;-34.520;150.798;2024-02-15T06:10:03;4.60;;;1.30;;
63398;SDS011;49533;-34.520;150.798;2024-02-15T06:12:30;2.58;;;1.20;;
63398;SDS011;49533;-34.520;150.798;2024-02-15T06:14:57;4.55;;;1.50;;
63398;SDS011;49533;-34.520;150.798;2024-02-15T06:17:24;1.13;;;1.00;;
63398;SDS011;49533;-34.520;150.798;2024-02-15T06:19:51;6.35;;;2.00;;
63398;SDS011;49533;-34.520;150.798;2024-02-15T06:22:19;5.70;;;1.80;;
63398;SDS011;49533;-34.520;150.798;2024-02-15T06:24:46;5.90;;;1.27;;
63398;SDS011;49533;-34.520;150.798;2024-02-15T06:27:13;3.17;;;1.23;;
63398;SDS011;49533;-34.520;150.798;2024-02-15T06:29:41;4.75;;;1.30;;
63398;SDS011;49533;-34.520;150.798;2024-02-15T06:32:26;3.80;;;1.35;;
63398;SDS011;49533;-34.520;150.798;2024-02-15T06:35:11;4.07;;;1.38;;
63398;SDS011;49533;-34.520;150.798;2024-02-15T06:37:59;3.78;;;1.42;;
63398;SDS011;49533;-34.520;150.798;2024-02-15T06:40:44;2.83;;;1.17;;
63398;SDS011;49533;-34.520;150.798;2024-02-15T06:43:11;3.17;;;1.48;;
63398;SDS011;49533;-34.520;150.798;2024-02-15T06:45:39;4.53;;;1.27;;
63398;SDS011;49533;-34.520;150.798;2024-02-15T06:48:12;2.45;;;1.33;;
63398;SDS011;49533;-34.520;150.798;2024-02-15T06:50:39;4.85;;;1.60;;
63398;SDS011;49533;-34.520;150.798;2024-02-15T06:53:06;6.22;;;1.77;;
63398;SDS011;49533;-34.520;150.798;2024-02-15T06:55:34;4.95;;;1.70;;
63398;SDS011;49533;-34.520;150.798;2024-02-15T06:58:02;4.57;;;1.65;;
63398;SDS011;49533;-34.520;150.798;2024-02-15T07:00:31;1.92;;;0.82;;
63398;SDS011;49533;-34.520;150.798;2024-02-15T07:02:59;3.05;;;1.33;;
63398;SDS011;49533;-34.520;150.798;2024-02-15T07:05:26;5.03;;;1.50;;
63398;SDS011;49533;-34.520;150.798;2024-02-15T07:07:53;5.32;;;1.27;;
63398;SDS011;49533;-34.520;150.798;2024-02-15T07:10:22;6.63;;;1.60;;
63398;SDS011;49533;-34.520;150.798;2024-02-15T07:12:49;5.07;;;1.73;;
63398;SDS011;49533;-34.520;150.798;2024-02-15T07:15:17;11.35;;;2.08;;
63398;SDS011;49533;-34.520;150.798;2024-02-15T07:17:45;5.90;;;1.98;;
63398;SDS011;49533;-34.520;150.798;2024-02-15T07:20:13;3.75;;;1.95;;
63398;SDS011;49533;-34.520;150.798;2024-02-15T07:22:43;6.22;;;1.63;;
63398;SDS011;49533;-34.520;150.798;2024-02-15T07:25:11;5.47;;;1.80;;
63398;SDS011;49533;-34.520;150.798;2024-02-15T07:27:39;7.10;;;1.90;;
63398;SDS011;49533;-34.520;150.798;2024-02-15T07:30:07;7.75;;;1.80;;
63398;SDS011;49533;-34.520;150.798;2024-02-15T07:32:34;7.03;;;2.10;;
63398;SDS011;49533;-34.520;150.798;2024-02-15T07:35:02;8.02;;;2.00;;
63398;SDS011;49533;-34.520;150.798;2024-02-15T07:37:33;4.28;;;1.45;;
63398;SDS011;49533;-34.520;150.798;2024-02-15T07:40:01;6.53;;;2.08;;
63398;SDS011;49533;-34.520;150.798;2024-02-15T07:42:33;3.17;;;1.73;;
63398;SDS011;49533;-34.520;150.798;2024-02-15T07:45:01;5.07;;;1.73;;
63398;SDS011;49533;-34.520;150.798;2024-02-15T07:47:28;8.73;;;1.85;;
63398;SDS011;49533;-34.520;150.798;2024-02-15T07:49:55;9.95;;;2.05;;
63398;SDS011;49533;-34.520;150.798;2024-02-15T07:52:35;6.50;;;1.45;;
63398;SDS011;49533;-34.520;150.798;2024-02-15T07:55:02;7.78;;;2.10;;
63398;SDS011;49533;-34.520;150.798;2024-02-15T07:57:34;8.77;;;2.33;;
63398;SDS011;49533;-34.520;150.798;2024-02-15T08:00:01;8.10;;;2.22;;
63398;SDS011;49533;-34.520;150.798;2024-02-15T08:02:36;10.40;;;2.35;;
63398;SDS011;49533;-34.520;150.798;2024-02-15T08:05:07;5.80;;;1.60;;
63398;SDS011;49533;-34.520;150.798;2024-02-15T08:07:43;5.70;;;1.80;;
63398;SDS011;49533;-34.520;150.798;2024-02-15T08:10:12;3.93;;;1.80;;
63398;SDS011;49533;-34.520;150.798;2024-02-15T08:12:43;5.07;;;1.70;;
63398;SDS011;49533;-34.520;150.798;2024-02-15T08:15:11;7.70;;;2.08;;
63398;SDS011;49533;-34.520;150.798;2024-02-15T08:17:43;5.28;;;1.90;;
63398;SDS011;49533;-34.520;150.798;2024-02-15T08:20:14;7.70;;;2.00;;
63398;SDS011;49533;-34.520;150.798;2024-02-15T08:22:47;5.90;;;1.70;;
63398;SDS011;49533;-34.520;150.798;2024-02-15T08:25:14;4.72;;;1.98;;
63398;SDS011;49533;-34.520;150.798;2024-02-15T08:27:43;8.13;;;2.47;;
63398;SDS011;49533;-34.520;150.798;2024-02-15T08:30:15;6.57;;;1.88;;
63398;SDS011;49533;-34.520;150.798;2024-02-15T08:32:43;8.18;;;1.92;;
63398;SDS011;49533;-34.520;150.798;2024-02-15T08:35:12;6.30;;;2.00;;
63398;SDS011;49533;-34.520;150.798;2024-02-15T08:37:42;9.15;;;1.83;;
63398;SDS011;49533;-34.520;150.798;2024-02-15T08:40:12;7.78;;;2.50;;
63398;SDS011;49533;-34.520;150.798;2024-02-15T08:42:41;11.85;;;2.38;;
63398;SDS011;49533;-34.520;150.798;2024-02-15T08:45:08;3.65;;;2.10;;
63398;SDS011;49533;-34.520;150.798;2024-02-15T08:47:38;14.55;;;2.67;;
63398;SDS011;49533;-34.520;150.798;2024-02-15T08:50:07;9.20;;;2.72;;
63398;SDS011;49533;-34.520;150.798;2024-02-15T08:52:39;5.97;;;2.22;;
63398;SDS011;49533;-34.520;150.798;2024-02-15T08:55:07;8.18;;;2.78;;
63398;SDS011;49533;-34.520;150.798;2024-02-15T08:57:36;11.25;;;2.55;;
63398;SDS011;49533;-34.520;150.798;2024-02-15T09:00:06;13.15;;;2.50;;
63398;SDS011;49533;-34.520;150.798;2024-02-15T09:02:43;17.58;;;3.05;;
63398;SDS011;49533;-34.520;150.798;2024-02-15T09:05:12;7.90;;;2.88;;
63398;SDS011;49533;-34.520;150.798;2024-02-15T09:07:44;9.75;;;2.20;;
63398;SDS011;49533;-34.520;150.798;2024-02-15T09:10:16;11.77;;;2.50;;
63398;SDS011;49533;-34.520;150.798;2024-02-15T09:12:44;11.13;;;2.83;;
63398;SDS011;49533;-34.520;150.798;2024-02-15T09:15:15;12.43;;;2.85;;
63398;SDS011;49533;-34.520;150.798;2024-02-15T09:17:43;12.35;;;2.65;;
63398;SDS011;49533;-34.520;150.798;2024-02-15T09:20:11;19.70;;;3.35;;
63398;SDS011;49533;-34.520;150.798;2024-02-15T09:22:51;10.35;;;2.40;;
63398;SDS011;49533;-34.520;150.798;2024-02-15T09:25:20;10.10;;;2.47;;
63398;SDS011;49533;-34.520;150.798;2024-02-15T09:27:51;8.60;;;2.65;;
63398;SDS011;49533;-34.520;150.798;2024-02-15T09:30:21;7.47;;;2.40;;
63398;SDS011;49533;-34.520;150.798;2024-02-15T09:32:50;8.55;;;2.05;;
63398;SDS011;49533;-34.520;150.798;2024-02-15T09:35:17;10.43;;;2.47;;
63398;SDS011;49533;-34.520;150.798;2024-02-15T09:37:45;5.75;;;1.90;;
63398;SDS011;49533;-34.520;150.798;2024-02-15T09:40:16;4.88;;;1.65;;
63398;SDS011;49533;-34.520;150.798;2024-02-15T09:42:44;4.80;;;1.70;;
63398;SDS011;49533;-34.520;150.798;2024-02-15T09:45:13;9.68;;;2.38;;
63398;SDS011;49533;-34.520;150.798;2024-02-15T09:47:42;3.60;;;1.85;;
63398;SDS011;49533;-34.520;150.798;2024-02-15T09:50:11;4.00;;;1.85;;
63398;SDS011;49533;-34.520;150.798;2024-02-15T09:52:43;4.00;;;1.48;;
63398;SDS011;49533;-34.520;150.798;2024-02-15T09:55:11;5.30;;;1.83;;
63398;SDS011;49533;-34.520;150.798;2024-02-15T09:57:44;5.28;;;1.73;;
63398;SDS011;49533;-34.520;150.798;2024-02-15T10:00:12;3.70;;;1.70;;
63398;SDS011;49533;-34.520;150.798;2024-02-15T10:02:44;5.30;;;1.58;;
63398;SDS011;49533;-34.520;150.798;2024-02-15T10:05:16;4.13;;;1.70;;
63398;SDS011;49533;-34.520;150.798;2024-02-15T10:07:44;4.13;;;1.70;;
63398;SDS011;49533;-34.520;150.798;2024-02-15T10:12:53;9.35;;;1.40;;
63398;SDS011;49533;-34.520;150.798;2024-02-15T10:18:17;3.47;;;1.38;;
63398;SDS011;49533;-34.520;150.798;2024-02-15T10:20:57;3.00;;;1.90;;
63398;SDS011;49533;-34.520;150.798;2024-02-15T10:23:24;3.60;;;1.52;;
63398;SDS011;49533;-34.520;150.798;2024-02-15T10:25:52;4.38;;;1.63;;
63398;SDS011;49533;-34.520;150.798;2024-02-15T10:28:21;3.92;;;1.65;;
63398;SDS011;49533;-34.520;150.798;2024-02-15T10:30:53;3.15;;;1.55;;
63398;SDS011;49533;-34.520;150.798;2024-02-15T10:33:27;7.45;;;1.60;;
63398;SDS011;49533;-34.520;150.798;2024-02-15T10:36:08;3.22;;;1.63;;
63398;SDS011;49533;-34.520;150.798;2024-02-15T10:41:06;3.58;;;1.65;;
63398;SDS011;49533;-34.520;150.798;2024-02-15T10:43:37;2.63;;;1.65;;
63398;SDS011;49533;-34.520;150.798;2024-02-15T10:46:05;3.75;;;1.80;;
63398;SDS011;49533;-34.520;150.798;2024-02-15T10:48:35;2.65;;;1.60;;
63398;SDS011;49533;-34.520;150.798;2024-02-15T10:51:03;3.10;;;1.58;;
63398;SDS011;49533;-34.520;150.798;2024-02-15T10:53:39;2.63;;;0.98;;
63398;SDS011;49533;-34.520;150.798;2024-02-15T10:56:20;3.03;;;1.42;;
63398;SDS011;49533;-34.520;150.798;2024-02-15T10:59:38;2.28;;;1.25;;
63398;SDS011;49533;-34.520;150.798;2024-02-15T11:01:46;3.08;;;1.38;;
63398;SDS011;49533;-34.520;150.798;2024-02-15T11:04:19;2.77;;;1.40;;
63398;SDS011;49533;-34.520;150.798;2024-02-15T11:06:58;1.92;;;1.02;;
63398;SDS011;49533;-34.520;150.798;2024-02-15T11:09:27;4.28;;;1.65;;
63398;SDS011;49533;-34.520;150.798;2024-02-15T11:11:56;1.25;;;0.93;;
63398;SDS011;49533;-34.520;150.798;2024-02-15T11:14:29;2.92;;;1.40;;
63398;SDS011;49533;-34.520;150.798;2024-02-15T11:17:01;2.63;;;1.33;;
63398;SDS011;49533;-34.520;150.798;2024-02-15T11:22:14;3.20;;;1.40;;
63398;SDS011;49533;-34.520;150.798;2024-02-15T11:24:49;3.25;;;1.27;;
63398;SDS011;49533;-34.520;150.798;2024-02-15T11:27:24;3.72;;;1.65;;
63398;SDS011;49533;-34.520;150.798;2024-02-15T11:35:16;4.47;;;1.50;;
63398;SDS011;49533;-34.520;150.798;2024-02-15T11:43:52;7.95;;;1.40;;
63398;SDS011;49533;-34.520;150.798;2024-02-15T11:46:24;2.13;;;1.02;;
63398;SDS011;49533;-34.520;150.798;2024-02-15T11:48:56;2.25;;;1.30;;
63398;SDS011;49533;-34.520;150.798;2024-02-15T11:51:25;3.78;;;1.30;;
63398;SDS011;49533;-34.520;150.798;2024-02-15T11:54:02;2.83;;;1.48;;
63398;SDS011;49533;-34.520;150.798;2024-02-15T11:56:54;3.95;;;1.65;;
63398;SDS011;49533;-34.520;150.798;2024-02-15T11:59:40;3.78;;;1.30;;
63398;SDS011;49533;-34.520;150.798;2024-02-15T12:02:33;1.90;;;1.10;;
63398;SDS011;49533;-34.520;150.798;2024-02-15T12:05:19;3.58;;;1.45;;
63398;SDS011;49533;-34.520;150.798;2024-02-15T12:08:06;2.78;;;1.27;;
63398;SDS011;49533;-34.520;150.798;2024-02-15T12:11:00;3.55;;;0.98;;
63398;SDS011;49533;-34.520;150.798;2024-02-15T12:13:52;2.35;;;0.98;;
63398;SDS011;49533;-34.520;150.798;2024-02-15T12:16:37;2.25;;;1.15;;
63398;SDS011;49533;-34.520;150.798;2024-02-15T12:19:23;2.08;;;1.27;;
63398;SDS011;49533;-34.520;150.798;2024-02-15T12:21:50;3.00;;;1.35;;
63398;SDS011;49533;-34.520;150.798;2024-02-15T12:24:19;2.75;;;1.40;;
63398;SDS011;49533;-34.520;150.798;2024-02-15T12:26:50;3.63;;;1.17;;
63398;SDS011;49533;-34.520;150.798;2024-02-15T12:29:18;1.58;;;0.93;;
63398;SDS011;49533;-34.520;150.798;2024-02-15T12:31:46;2.50;;;1.33;;
63398;SDS011;49533;-34.520;150.798;2024-02-15T12:34:14;4.30;;;1.58;;
63398;SDS011;49533;-34.520;150.798;2024-02-15T12:36:46;2.90;;;1.40;;
63398;SDS011;49533;-34.520;150.798;2024-02-15T12:39:14;2.22;;;1.17;;
63398;SDS011;49533;-34.520;150.798;2024-02-15T12:41:53;2.45;;;0.98;;
63398;SDS011;49533;-34.520;150.798;2024-02-15T12:44:20;2.80;;;1.27;;
63398;SDS011;49533;-34.520;150.798;2024-02-15T12:46:57;2.80;;;1.38;;
63398;SDS011;49533;-34.520;150.798;2024-02-15T12:51:53;3.65;;;1.25;;
63398;SDS011;49533;-34.520;150.798;2024-02-15T12:54:40;4.55;;;1.13;;
63398;SDS011;49533;-34.520;150.798;2024-02-15T12:57:08;1.58;;;1.08;;
63398;SDS011;49533;-34.520;150.798;2024-02-15T12:59:35;2.83;;;1.67;;
63398;SDS011;49533;-34.520;150.798;2024-02-15T13:02:02;2.25;;;1.15;;
63398;SDS011;49533;-34.520;150.798;2024-02-15T13:04:30;1.67;;;0.98;;
63398;SDS011;49533;-34.520;150.798;2024-02-15T13:06:57;1.60;;;1.10;;
63398;SDS011;49533;-34.520;150.798;2024-02-15T13:09:24;4.70;;;1.48;;
63398;SDS011;49533;-34.520;150.798;2024-02-15T13:11:51;3.08;;;1.30;;
63398;SDS011;49533;-34.520;150.798;2024-02-15T13:14:19;2.10;;;1.02;;
63398;SDS011;49533;-34.520;150.798;2024-02-15T13:16:46;3.15;;;1.35;;
63398;SDS011;49533;-34.520;150.798;2024-02-15T13:19:14;3.17;;;1.08;;
63398;SDS011;49533;-34.520;150.798;2024-02-15T13:21:41;1.33;;;0.85;;
63398;SDS011;49533;-34.520;150.798;2024-02-15T13:24:08;2.03;;;1.05;;
63398;SDS011;49533;-34.520;150.798;2024-02-15T13:26:37;2.03;;;1.25;;
63398;SDS011;49533;-34.520;150.798;2024-02-15T13:29:05;3.92;;;1.38;;
63398;SDS011;49533;-34.520;150.798;2024-02-15T13:31:33;3.17;;;1.20;;
63398;SDS011;49533;-34.520;150.798;2024-02-15T13:34:00;2.15;;;1.30;;
63398;SDS011;49533;-34.520;150.798;2024-02-15T13:36:27;2.15;;;1.10;;
63398;SDS011;49533;-34.520;150.798;2024-02-15T13:38:54;2.88;;;1.50;;
63398;SDS011;49533;-34.520;150.798;2024-02-15T13:41:21;1.95;;;0.93;;
63398;SDS011;49533;-34.520;150.798;2024-02-15T13:43:48;3.45;;;1.13;;
63398;SDS011;49533;-34.520;150.798;2024-02-15T13:46:15;4.38;;;1.10;;
63398;SDS011;49533;-34.520;150.798;2024-02-15T13:48:45;1.17;;;1.00;;
63398;SDS011;49533;-34.520;150.798;2024-02-15T13:51:12;2.05;;;1.30;;
63398;SDS011;49533;-34.520;150.798;2024-02-15T13:53:39;3.47;;;1.30;;
63398;SDS011;49533;-34.520;150.798;2024-02-15T13:56:08;2.75;;;1.13;;
63398;SDS011;49533;-34.520;150.798;2024-02-15T13:58:35;2.63;;;1.20;;
63398;SDS011;49533;-34.520;150.798;2024-02-15T14:01:03;5.30;;;1.17;;
63398;SDS011;49533;-34.520;150.798;2024-02-15T14:03:30;3.10;;;1.08;;
63398;SDS011;49533;-34.520;150.798;2024-02-15T14:05:59;1.45;;;1.00;;
63398;SDS011;49533;-34.520;150.798;2024-02-15T14:08:26;2.55;;;1.02;;
63398;SDS011;49533;-34.520;150.798;2024-02-15T14:10:53;3.70;;;1.25;;
63398;SDS011;49533;-34.520;150.798;2024-02-15T14:13:21;2.17;;;1.30;;
63398;SDS011;49533;-34.520;150.798;2024-02-15T14:15:48;3.30;;;1.00;;
63398;SDS011;49533;-34.520;150.798;2024-02-15T14:18:16;2.55;;;0.80;;
63398;SDS011;49533;-34.520;150.798;2024-02-15T14:20:44;1.15;;;0.77;;
63398;SDS011;49533;-34.520;150.798;2024-02-15T14:23:14;2.40;;;1.08;;
63398;SDS011;49533;-34.520;150.798;2024-02-15T14:25:44;2.10;;;1.00;;
63398;SDS011;49533;-34.520;150.798;2024-02-15T14:28:12;2.95;;;1.20;;
63398;SDS011;49533;-34.520;150.798;2024-02-15T14:30:39;1.90;;;1.02;;
63398;SDS011;49533;-34.520;150.798;2024-02-15T14:33:25;1.73;;;1.10;;
63398;SDS011;49533;-34.520;150.798;2024-02-15T14:35:52;4.07;;;1.30;;
63398;SDS011;49533;-34.520;150.798;2024-02-15T14:38:24;1.80;;;1.00;;
63398;SDS011;49533;-34.520;150.798;2024-02-15T14:40:51;4.90;;;1.30;;
63398;SDS011;49533;-34.520;150.798;2024-02-15T14:43:23;2.05;;;1.08;;
63398;SDS011;49533;-34.520;150.798;2024-02-15T14:45:51;2.65;;;1.05;;
63398;SDS011;49533;-34.520;150.798;2024-02-15T14:48:20;2.58;;;1.15;;
63398;SDS011;49533;-34.520;150.798;2024-02-15T14:50:49;2.63;;;1.35;;
63398;SDS011;49533;-34.520;150.798;2024-02-15T14:53:16;2.25;;;1.23;;
63398;SDS011;49533;-34.520;150.798;2024-02-15T14:55:43;1.60;;;1.10;;